sensor_id;sensor_type;location;lat;lon;timestamp;P1;durP1;ratioP1;P2;durP2;ratioP2
59587;SDS011;45412;54.472;18.464;2022-08-06T00:01:18;9.30;;;3.00;;
59587;SDS011;45412;54.472;18.464;2022-08-06T00:04:07;7.70;;;2.90;;
59587;SDS011;45412;54.472;18.464;2022-08-06T00:06:55;8.80;;;2.80;;
59587;SDS011;45412;54.472;18.464;2022-08-06T00:09:43;8.20;;;3.30;;
59587;SDS011;45412;54.472;18.464;2022-08-06T00:12:44;9.20;;;3.00;;
59587;SDS011;45412;54.472;18.464;2022-08-06T00:15:34;7.10;;;2.60;;
59587;SDS011;45412;54.472;18.464;2022-08-06T00:18:43;8.70;;;3.00;;
59587;SDS011;45412;54.472;18.464;2022-08-06T00:21:31;9.00;;;2.60;;
59587;SDS011;45412;54.472;18.464;2022-08-06T00:24:29;8.30;;;2.60;;
59587;SDS011;45412;54.472;18.464;2022-08-06T00:27:18;8.70;;;2.60;;
59587;SDS011;45412;54.472;18.464;2022-08-06T00:30:15;8.30;;;2.20;;
59587;SDS011;45412;54.472;18.464;2022-08-06T00:33:08;7.40;;;2.10;;
59587;SDS011;45412;54.472;18.464;2022-08-06T00:35:56;8.20;;;2.20;;
59587;SDS011;45412;54.472;18.464;2022-08-06T00:38:46;8.50;;;2.20;;
59587;SDS011;45412;54.472;18.464;2022-08-06T00:41:34;8.70;;;2.10;;
59587;SDS011;45412;54.472;18.464;2022-08-06T00:44:32;7.90;;;2.10;;
59587;SDS011;45412;54.472;18.464;2022-08-06T00:47:20;9.70;;;2.00;;
59587;SDS011;45412;54.472;18.464;2022-08-06T00:50:29;8.10;;;2.20;;
59587;SDS011;45412;54.472;18.464;2022-08-06T00:53:18;7.30;;;2.10;;
59587;SDS011;45412;54.472;18.464;2022-08-06T00:56:07;5.70;;;1.50;;
59587;SDS011;45412;54.472;18.464;2022-08-06T00:58:57;7.70;;;1.70;;
59587;SDS011;45412;54.472;18.464;2022-08-06T01:01:50;7.10;;;1.80;;
59587;SDS011;45412;54.472;18.464;2022-08-06T01:04:38;8.20;;;1.80;;
59587;SDS011;45412;54.472;18.464;2022-08-06T01:07:27;8.80;;;1.80;;
59587;SDS011;45412;54.472;18.464;2022-08-06T01:10:35;8.70;;;1.80;;
59587;SDS011;45412;54.472;18.464;2022-08-06T01:13:29;6.40;;;1.30;;
59587;SDS011;45412;54.472;18.464;2022-08-06T01:16:48;6.90;;;1.40;;
59587;SDS011;45412;54.472;18.464;2022-08-06T01:30:34;8.90;;;1.50;;
59587;SDS011;45412;54.472;18.464;2022-08-06T01:33:33;5.60;;;1.30;;
59587;SDS011;45412;54.472;18.464;2022-08-06T01:36:39;6.80;;;1.10;;
59587;SDS011;45412;54.472;18.464;2022-08-06T01:39:35;9.40;;;1.30;;
59587;SDS011;45412;54.472;18.464;2022-08-06T01:42:45;6.90;;;1.50;;
59587;SDS011;45412;54.472;18.464;2022-08-06T01:45:40;8.30;;;1.20;;
59587;SDS011;45412;54.472;18.464;2022-08-06T01:48:42;8.50;;;1.30;;
59587;SDS011;45412;54.472;18.464;2022-08-06T01:51:31;6.60;;;1.20;;
59587;SDS011;45412;54.472;18.464;2022-08-06T01:54:44;4.80;;;1.00;;
59587;SDS011;45412;54.472;18.464;2022-08-06T01:57:44;6.80;;;1.50;;
59587;SDS011;45412;54.472;18.464;2022-08-06T02:00:58;5.90;;;1.10;;
59587;SDS011;45412;54.472;18.464;2022-08-06T02:03:51;7.80;;;1.20;;
59587;SDS011;45412;54.472;18.464;2022-08-06T02:06:46;5.60;;;1.10;;
59587;SDS011;45412;54.472;18.464;2022-08-06T02:09:37;7.60;;;1.30;;
59587;SDS011;45412;54.472;18.464;2022-08-06T02:12:27;5.40;;;1.20;;
59587;SDS011;45412;54.472;18.464;2022-08-06T02:15:27;6.20;;;1.20;;
59587;SDS011;45412;54.472;18.464;2022-08-06T02:18:38;7.20;;;1.30;;
59587;SDS011;45412;54.472;18.464;2022-08-06T02:21:31;7.80;;;1.20;;
59587;SDS011;45412;54.472;18.464;2022-08-06T02:24:22;6.10;;;1.30;;
59587;SDS011;45412;54.472;18.464;2022-08-06T02:27:14;6.80;;;1.50;;
59587;SDS011;45412;54.472;18.464;2022-08-06T02:30:11;6.40;;;1.00;;
59587;SDS011;45412;54.472;18.464;2022-08-06T02:33:01;4.80;;;1.10;;
59587;SDS011;45412;54.472;18.464;2022-08-06T02:36:32;6.60;;;1.40;;
59587;SDS011;45412;54.472;18.464;2022-08-06T02:39:40;7.00;;;1.20;;
59587;SDS011;45412;54.472;18.464;2022-08-06T02:42:50;5.20;;;1.20;;
59587;SDS011;45412;54.472;18.464;2022-08-06T02:46:13;6.00;;;1.10;;
59587;SDS011;45412;54.472;18.464;2022-08-06T02:49:12;6.60;;;1.40;;
59587;SDS011;45412;54.472;18.464;2022-08-06T02:52:17;6.60;;;1.40;;
59587;SDS011;45412;54.472;18.464;2022-08-06T02:55:20;5.90;;;1.10;;
59587;SDS011;45412;54.472;18.464;2022-08-06T02:58:47;4.80;;;1.10;;
59587;SDS011;45412;54.472;18.464;2022-08-06T03:01:52;7.90;;;1.40;;
59587;SDS011;45412;54.472;18.464;2022-08-06T03:04:47;6.40;;;1.20;;
59587;SDS011;45412;54.472;18.464;2022-08-06T03:07:43;7.50;;;1.40;;
59587;SDS011;45412;54.472;18.464;2022-08-06T03:10:34;5.50;;;1.30;;
59587;SDS011;45412;54.472;18.464;2022-08-06T03:13:24;6.30;;;1.30;;
59587;SDS011;45412;54.472;18.464;2022-08-06T03:16:22;7.10;;;1.30;;
59587;SDS011;45412;54.472;18.464;2022-08-06T03:19:15;5.00;;;1.00;;
59587;SDS011;45412;54.472;18.464;2022-08-06T03:22:26;4.60;;;0.90;;
59587;SDS011;45412;54.472;18.464;2022-08-06T03:25:26;5.10;;;1.20;;
59587;SDS011;45412;54.472;18.464;2022-08-06T03:28:17;9.20;;;1.30;;
59587;SDS011;45412;54.472;18.464;2022-08-06T03:31:09;6.60;;;1.00;;
59587;SDS011;45412;54.472;18.464;2022-08-06T03:33:59;6.10;;;1.30;;
59587;SDS011;45412;54.472;18.464;2022-08-06T03:36:51;6.20;;;1.20;;
59587;SDS011;45412;54.472;18.464;2022-08-06T03:39:41;5.20;;;1.10;;
59587;SDS011;45412;54.472;18.464;2022-08-06T03:42:40;5.10;;;1.30;;
59587;SDS011;45412;54.472;18.464;2022-08-06T03:45:30;6.60;;;1.20;;
59587;SDS011;45412;54.472;18.464;2022-08-06T03:48:42;5.90;;;1.30;;
59587;SDS011;45412;54.472;18.464;2022-08-06T03:51:32;6.20;;;1.40;;
59587;SDS011;45412;54.472;18.464;2022-08-06T03:54:42;5.20;;;1.10;;
59587;SDS011;45412;54.472;18.464;2022-08-06T03:57:39;5.70;;;1.00;;
59587;SDS011;45412;54.472;18.464;2022-08-06T04:00:45;5.70;;;1.30;;
59587;SDS011;45412;54.472;18.464;2022-08-06T04:03:55;7.60;;;1.20;;
59587;SDS011;45412;54.472;18.464;2022-08-06T04:06:45;5.20;;;1.10;;
59587;SDS011;45412;54.472;18.464;2022-08-06T04:09:38;7.70;;;1.20;;
59587;SDS011;45412;54.472;18.464;2022-08-06T04:12:46;6.70;;;1.20;;
59587;SDS011;45412;54.472;18.464;2022-08-06T04:15:57;5.40;;;1.40;;
59587;SDS011;45412;54.472;18.464;2022-08-06T04:18:48;5.10;;;1.10;;
59587;SDS011;45412;54.472;18.464;2022-08-06T04:21:46;7.00;;;1.40;;
59587;SDS011;45412;54.472;18.464;2022-08-06T04:24:54;6.30;;;1.20;;
59587;SDS011;45412;54.472;18.464;2022-08-06T04:27:43;6.00;;;1.10;;
59587;SDS011;45412;54.472;18.464;2022-08-06T04:30:40;5.70;;;1.10;;
59587;SDS011;45412;54.472;18.464;2022-08-06T04:33:33;5.60;;;1.00;;
59587;SDS011;45412;54.472;18.464;2022-08-06T04:36:23;4.90;;;1.10;;
59587;SDS011;45412;54.472;18.464;2022-08-06T04:39:12;5.50;;;0.90;;
59587;SDS011;45412;54.472;18.464;2022-08-06T04:42:07;6.20;;;1.00;;
59587;SDS011;45412;54.472;18.464;2022-08-06T04:44:55;5.00;;;1.20;;
59587;SDS011;45412;54.472;18.464;2022-08-06T04:47:46;4.70;;;1.00;;
59587;SDS011;45412;54.472;18.464;2022-08-06T04:50:36;6.20;;;1.40;;
59587;SDS011;45412;54.472;18.464;2022-08-06T04:53:25;5.10;;;1.20;;
59587;SDS011;45412;54.472;18.464;2022-08-06T04:56:33;5.30;;;1.20;;
59587;SDS011;45412;54.472;18.464;2022-08-06T04:59:23;4.40;;;1.00;;
59587;SDS011;45412;54.472;18.464;2022-08-06T05:02:31;5.90;;;1.30;;
59587;SDS011;45412;54.472;18.464;2022-08-06T05:05:20;6.90;;;1.30;;
59587;SDS011;45412;54.472;18.464;2022-08-06T05:08:09;5.70;;;1.20;;
59587;SDS011;45412;54.472;18.464;2022-08-06T05:14:08;5.00;;;1.10;;
59587;SDS011;45412;54.472;18.464;2022-08-06T05:17:02;5.40;;;1.00;;
59587;SDS011;45412;54.472;18.464;2022-08-06T05:20:22;4.00;;;0.80;;
59587;SDS011;45412;54.472;18.464;2022-08-06T05:23:21;6.00;;;1.10;;
59587;SDS011;45412;54.472;18.464;2022-08-06T05:26:18;4.20;;;1.10;;
59587;SDS011;45412;54.472;18.464;2022-08-06T05:29:12;5.70;;;0.90;;
59587;SDS011;45412;54.472;18.464;2022-08-06T05:32:09;6.80;;;1.10;;
59587;SDS011;45412;54.472;18.464;2022-08-06T05:34:58;4.90;;;1.10;;
59587;SDS011;45412;54.472;18.464;2022-08-06T05:37:45;4.80;;;1.20;;
59587;SDS011;45412;54.472;18.464;2022-08-06T05:40:51;5.40;;;1.10;;
59587;SDS011;45412;54.472;18.464;2022-08-06T05:43:44;5.50;;;1.10;;
59587;SDS011;45412;54.472;18.464;2022-08-06T05:46:51;4.50;;;1.10;;
59587;SDS011;45412;54.472;18.464;2022-08-06T05:49:51;5.90;;;1.20;;
59587;SDS011;45412;54.472;18.464;2022-08-06T05:53:00;5.60;;;1.10;;
59587;SDS011;45412;54.472;18.464;2022-08-06T05:55:59;4.50;;;1.00;;
59587;SDS011;45412;54.472;18.464;2022-08-06T05:58:59;6.10;;;1.10;;
59587;SDS011;45412;54.472;18.464;2022-08-06T06:01:51;5.10;;;1.20;;
59587;SDS011;45412;54.472;18.464;2022-08-06T06:04:41;5.60;;;1.60;;
59587;SDS011;45412;54.472;18.464;2022-08-06T06:07:34;5.90;;;1.10;;
59587;SDS011;45412;54.472;18.464;2022-08-06T06:10:43;6.50;;;1.60;;
59587;SDS011;45412;54.472;18.464;2022-08-06T06:13:41;5.90;;;1.20;;
59587;SDS011;45412;54.472;18.464;2022-08-06T06:26:55;5.20;;;1.00;;
59587;SDS011;45412;54.472;18.464;2022-08-06T06:30:06;5.40;;;1.20;;
59587;SDS011;45412;54.472;18.464;2022-08-06T06:37:05;5.10;;;1.10;;
59587;SDS011;45412;54.472;18.464;2022-08-06T06:46:41;5.10;;;1.30;;
59587;SDS011;45412;54.472;18.464;2022-08-06T06:49:43;5.20;;;0.90;;
59587;SDS011;45412;54.472;18.464;2022-08-06T06:52:50;6.20;;;1.20;;
59587;SDS011;45412;54.472;18.464;2022-08-06T06:55:46;5.70;;;1.10;;
59587;SDS011;45412;54.472;18.464;2022-08-06T06:59:01;6.20;;;1.10;;
59587;SDS011;45412;54.472;18.464;2022-08-06T07:02:03;5.10;;;1.10;;
59587;SDS011;45412;54.472;18.464;2022-08-06T07:05:10;5.90;;;1.10;;
59587;SDS011;45412;54.472;18.464;2022-08-06T07:08:04;5.00;;;1.00;;
59587;SDS011;45412;54.472;18.464;2022-08-06T07:10:53;6.10;;;1.30;;
59587;SDS011;45412;54.472;18.464;2022-08-06T07:13:43;7.20;;;1.10;;
59587;SDS011;45412;54.472;18.464;2022-08-06T07:16:38;5.10;;;1.20;;
59587;SDS011;45412;54.472;18.464;2022-08-06T07:19:28;5.20;;;1.00;;
59587;SDS011;45412;54.472;18.464;2022-08-06T07:22:19;5.70;;;0.90;;
59587;SDS011;45412;54.472;18.464;2022-08-06T07:25:12;6.60;;;1.30;;
59587;SDS011;45412;54.472;18.464;2022-08-06T07:28:12;8.00;;;1.20;;
59587;SDS011;45412;54.472;18.464;2022-08-06T07:31:09;5.60;;;1.10;;
59587;SDS011;45412;54.472;18.464;2022-08-06T07:34:01;5.70;;;1.20;;
59587;SDS011;45412;54.472;18.464;2022-08-06T07:36:56;5.70;;;1.00;;
59587;SDS011;45412;54.472;18.464;2022-08-06T07:39:46;5.60;;;0.90;;
59587;SDS011;45412;54.472;18.464;2022-08-06T07:42:37;5.70;;;1.20;;
59587;SDS011;45412;54.472;18.464;2022-08-06T07:45:29;4.80;;;1.10;;
59587;SDS011;45412;54.472;18.464;2022-08-06T07:48:45;5.70;;;1.20;;
59587;SDS011;45412;54.472;18.464;2022-08-06T07:51:40;5.70;;;1.10;;
59587;SDS011;45412;54.472;18.464;2022-08-06T07:54:30;6.10;;;1.20;;
59587;SDS011;45412;54.472;18.464;2022-08-06T07:57:21;5.20;;;1.30;;
59587;SDS011;45412;54.472;18.464;2022-08-06T08:00:12;5.10;;;1.30;;
59587;SDS011;45412;54.472;18.464;2022-08-06T08:03:02;5.10;;;1.20;;
59587;SDS011;45412;54.472;18.464;2022-08-06T08:06:30;5.90;;;1.10;;
59587;SDS011;45412;54.472;18.464;2022-08-06T08:09:36;5.70;;;1.10;;
59587;SDS011;45412;54.472;18.464;2022-08-06T08:12:44;6.40;;;1.10;;
59587;SDS011;45412;54.472;18.464;2022-08-06T08:15:39;8.00;;;1.20;;
59587;SDS011;45412;54.472;18.464;2022-08-06T08:18:31;5.60;;;1.20;;
59587;SDS011;45412;54.472;18.464;2022-08-06T08:21:20;6.70;;;1.20;;
59587;SDS011;45412;54.472;18.464;2022-08-06T08:24:11;5.40;;;1.30;;
59587;SDS011;45412;54.472;18.464;2022-08-06T08:27:00;6.20;;;1.50;;
59587;SDS011;45412;54.472;18.464;2022-08-06T08:30:04;5.70;;;1.30;;
59587;SDS011;45412;54.472;18.464;2022-08-06T08:32:52;5.60;;;1.30;;
59587;SDS011;45412;54.472;18.464;2022-08-06T08:35:41;7.80;;;1.60;;
59587;SDS011;45412;54.472;18.464;2022-08-06T08:38:47;5.10;;;1.10;;
59587;SDS011;45412;54.472;18.464;2022-08-06T08:41:51;6.00;;;1.20;;
59587;SDS011;45412;54.472;18.464;2022-08-06T08:44:43;6.00;;;1.40;;
59587;SDS011;45412;54.472;18.464;2022-08-06T08:47:33;7.80;;;1.50;;
59587;SDS011;45412;54.472;18.464;2022-08-06T08:50:40;6.60;;;1.20;;
59587;SDS011;45412;54.472;18.464;2022-08-06T08:53:37;4.30;;;0.90;;
59587;SDS011;45412;54.472;18.464;2022-08-06T08:56:33;4.00;;;0.70;;
59587;SDS011;45412;54.472;18.464;2022-08-06T08:59:42;4.00;;;0.90;;
59587;SDS011;45412;54.472;18.464;2022-08-06T09:02:49;5.10;;;1.00;;
59587;SDS011;45412;54.472;18.464;2022-08-06T09:05:38;4.30;;;0.80;;
59587;SDS011;45412;54.472;18.464;2022-08-06T09:08:34;5.30;;;0.90;;
59587;SDS011;45412;54.472;18.464;2022-08-06T09:11:44;3.70;;;0.60;;
59587;SDS011;45412;54.472;18.464;2022-08-06T09:14:55;5.00;;;0.70;;
59587;SDS011;45412;54.472;18.464;2022-08-06T09:17:45;6.10;;;0.90;;
59587;SDS011;45412;54.472;18.464;2022-08-06T09:20:55;3.40;;;0.70;;
59587;SDS011;45412;54.472;18.464;2022-08-06T09:23:45;6.00;;;0.80;;
59587;SDS011;45412;54.472;18.464;2022-08-06T09:27:10;5.00;;;0.80;;
59587;SDS011;45412;54.472;18.464;2022-08-06T09:30:22;5.20;;;0.80;;
59587;SDS011;45412;54.472;18.464;2022-08-06T09:33:20;3.60;;;0.60;;
59587;SDS011;45412;54.472;18.464;2022-08-06T09:36:52;5.50;;;0.80;;
59587;SDS011;45412;54.472;18.464;2022-08-06T09:39:43;5.20;;;0.70;;
59587;SDS011;45412;54.472;18.464;2022-08-06T09:42:52;4.90;;;0.80;;
59587;SDS011;45412;54.472;18.464;2022-08-06T09:45:44;4.50;;;0.60;;
59587;SDS011;45412;54.472;18.464;2022-08-06T09:48:33;5.20;;;0.60;;
59587;SDS011;45412;54.472;18.464;2022-08-06T09:51:22;5.80;;;0.70;;
59587;SDS011;45412;54.472;18.464;2022-08-06T09:54:36;5.40;;;0.60;;
59587;SDS011;45412;54.472;18.464;2022-08-06T09:57:27;3.30;;;0.50;;
59587;SDS011;45412;54.472;18.464;2022-08-06T10:00:31;5.70;;;0.80;;
59587;SDS011;45412;54.472;18.464;2022-08-06T10:03:26;5.00;;;0.70;;
59587;SDS011;45412;54.472;18.464;2022-08-06T10:06:53;5.20;;;0.80;;
59587;SDS011;45412;54.472;18.464;2022-08-06T10:09:52;4.40;;;0.80;;
59587;SDS011;45412;54.472;18.464;2022-08-06T10:12:42;4.60;;;0.60;;
59587;SDS011;45412;54.472;18.464;2022-08-06T10:15:30;4.30;;;0.70;;
59587;SDS011;45412;54.472;18.464;2022-08-06T10:18:49;4.40;;;0.70;;
59587;SDS011;45412;54.472;18.464;2022-08-06T10:21:45;4.80;;;0.70;;
59587;SDS011;45412;54.472;18.464;2022-08-06T10:24:42;4.70;;;0.70;;
59587;SDS011;45412;54.472;18.464;2022-08-06T10:27:36;4.70;;;0.70;;
59587;SDS011;45412;54.472;18.464;2022-08-06T10:30:25;4.60;;;0.80;;
59587;SDS011;45412;54.472;18.464;2022-08-06T10:33:23;5.10;;;0.90;;
59587;SDS011;45412;54.472;18.464;2022-08-06T10:36:22;5.10;;;1.00;;
59587;SDS011;45412;54.472;18.464;2022-08-06T10:39:24;5.30;;;0.80;;
59587;SDS011;45412;54.472;18.464;2022-08-06T10:42:34;4.70;;;0.70;;
59587;SDS011;45412;54.472;18.464;2022-08-06T10:45:22;3.70;;;0.60;;
59587;SDS011;45412;54.472;18.464;2022-08-06T10:48:13;3.90;;;0.80;;
59587;SDS011;45412;54.472;18.464;2022-08-06T10:51:23;7.10;;;0.90;;
59587;SDS011;45412;54.472;18.464;2022-08-06T10:54:33;4.90;;;0.80;;
59587;SDS011;45412;54.472;18.464;2022-08-06T10:57:23;3.30;;;0.60;;
59587;SDS011;45412;54.472;18.464;2022-08-06T11:00:22;5.60;;;0.60;;
59587;SDS011;45412;54.472;18.464;2022-08-06T11:03:17;3.70;;;0.50;;
59587;SDS011;45412;54.472;18.464;2022-08-06T11:13:32;4.70;;;0.70;;
59587;SDS011;45412;54.472;18.464;2022-08-06T11:16:40;4.60;;;0.60;;
59587;SDS011;45412;54.472;18.464;2022-08-06T11:19:46;5.20;;;0.70;;
59587;SDS011;45412;54.472;18.464;2022-08-06T11:22:44;4.20;;;0.60;;
59587;SDS011;45412;54.472;18.464;2022-08-06T11:31:38;5.70;;;0.70;;
59587;SDS011;45412;54.472;18.464;2022-08-06T11:34:43;4.30;;;0.50;;
59587;SDS011;45412;54.472;18.464;2022-08-06T11:37:42;3.50;;;0.60;;
59587;SDS011;45412;54.472;18.464;2022-08-06T11:41:01;3.10;;;0.60;;
59587;SDS011;45412;54.472;18.464;2022-08-06T11:44:03;3.90;;;0.50;;
59587;SDS011;45412;54.472;18.464;2022-08-06T11:47:08;4.20;;;0.60;;
59587;SDS011;45412;54.472;18.464;2022-08-06T11:50:00;3.10;;;0.60;;
59587;SDS011;45412;54.472;18.464;2022-08-06T11:52:48;4.70;;;0.70;;
59587;SDS011;45412;54.472;18.464;2022-08-06T11:56:03;4.10;;;0.60;;
59587;SDS011;45412;54.472;18.464;2022-08-06T11:59:13;3.80;;;0.60;;
59587;SDS011;45412;54.472;18.464;2022-08-06T12:02:09;3.50;;;0.60;;
59587;SDS011;45412;54.472;18.464;2022-08-06T12:05:07;4.90;;;0.60;;
59587;SDS011;45412;54.472;18.464;2022-08-06T12:08:19;4.50;;;0.90;;
59587;SDS011;45412;54.472;18.464;2022-08-06T12:11:29;4.20;;;0.60;;
59587;SDS011;45412;54.472;18.464;2022-08-06T12:14:40;5.00;;;0.60;;
59587;SDS011;45412;54.472;18.464;2022-08-06T12:17:36;6.30;;;0.80;;
59587;SDS011;45412;54.472;18.464;2022-08-06T12:20:46;4.50;;;0.80;;
59587;SDS011;45412;54.472;18.464;2022-08-06T12:23:40;4.30;;;0.70;;
59587;SDS011;45412;54.472;18.464;2022-08-06T12:26:43;4.30;;;0.60;;
59587;SDS011;45412;54.472;18.464;2022-08-06T12:29:32;3.30;;;0.70;;
59587;SDS011;45412;54.472;18.464;2022-08-06T12:32:30;5.20;;;0.80;;
59587;SDS011;45412;54.472;18.464;2022-08-06T12:35:20;5.70;;;0.80;;
59587;SDS011;45412;54.472;18.464;2022-08-06T12:38:09;5.20;;;0.80;;
59587;SDS011;45412;54.472;18.464;2022-08-06T12:41:00;4.20;;;0.60;;
59587;SDS011;45412;54.472;18.464;2022-08-06T12:43:57;9.70;;;0.90;;
59587;SDS011;45412;54.472;18.464;2022-08-06T12:46:46;6.80;;;0.90;;
59587;SDS011;45412;54.472;18.464;2022-08-06T12:49:41;5.60;;;0.90;;
59587;SDS011;45412;54.472;18.464;2022-08-06T12:52:30;5.90;;;1.10;;
59587;SDS011;45412;54.472;18.464;2022-08-06T12:55:19;3.80;;;0.80;;
59587;SDS011;45412;54.472;18.464;2022-08-06T12:58:09;3.90;;;0.80;;
59587;SDS011;45412;54.472;18.464;2022-08-06T13:01:24;5.00;;;0.80;;
59587;SDS011;45412;54.472;18.464;2022-08-06T13:04:35;6.00;;;1.10;;
59587;SDS011;45412;54.472;18.464;2022-08-06T13:07:25;6.80;;;1.20;;
59587;SDS011;45412;54.472;18.464;2022-08-06T13:10:30;4.50;;;0.80;;
59587;SDS011;45412;54.472;18.464;2022-08-06T13:13:42;7.30;;;1.30;;
59587;SDS011;45412;54.472;18.464;2022-08-06T13:16:55;4.60;;;0.90;;
59587;SDS011;45412;54.472;18.464;2022-08-06T13:19:54;5.70;;;0.80;;
59587;SDS011;45412;54.472;18.464;2022-08-06T13:22:50;4.80;;;0.80;;
59587;SDS011;45412;54.472;18.464;2022-08-06T13:25:43;4.10;;;0.80;;
59587;SDS011;45412;54.472;18.464;2022-08-06T13:28:39;4.00;;;0.90;;
59587;SDS011;45412;54.472;18.464;2022-08-06T13:32:06;5.10;;;0.90;;
59587;SDS011;45412;54.472;18.464;2022-08-06T13:35:14;5.70;;;1.00;;
59587;SDS011;45412;54.472;18.464;2022-08-06T13:38:28;5.40;;;1.00;;
59587;SDS011;45412;54.472;18.464;2022-08-06T13:41:27;4.20;;;0.90;;
59587;SDS011;45412;54.472;18.464;2022-08-06T13:44:36;8.20;;;1.00;;
59587;SDS011;45412;54.472;18.464;2022-08-06T13:47:33;6.30;;;1.10;;
59587;SDS011;45412;54.472;18.464;2022-08-06T13:50:42;6.10;;;1.20;;
59587;SDS011;45412;54.472;18.464;2022-08-06T13:53:31;5.50;;;1.00;;
59587;SDS011;45412;54.472;18.464;2022-08-06T13:56:27;4.70;;;0.70;;
59587;SDS011;45412;54.472;18.464;2022-08-06T13:59:19;7.30;;;1.00;;
59587;SDS011;45412;54.472;18.464;2022-08-06T14:02:27;6.30;;;0.90;;
59587;SDS011;45412;54.472;18.464;2022-08-06T14:05:16;6.20;;;0.90;;
59587;SDS011;45412;54.472;18.464;2022-08-06T14:08:10;5.70;;;1.10;;
59587;SDS011;45412;54.472;18.464;2022-08-06T14:11:05;5.20;;;0.80;;
59587;SDS011;45412;54.472;18.464;2022-08-06T14:13:54;6.30;;;1.00;;
59587;SDS011;45412;54.472;18.464;2022-08-06T14:16:43;3.80;;;0.70;;
59587;SDS011;45412;54.472;18.464;2022-08-06T14:19:32;4.70;;;0.90;;
59587;SDS011;45412;54.472;18.464;2022-08-06T14:22:40;5.40;;;1.00;;
59587;SDS011;45412;54.472;18.464;2022-08-06T14:25:30;6.50;;;0.90;;
59587;SDS011;45412;54.472;18.464;2022-08-06T14:28:38;6.10;;;0.90;;
59587;SDS011;45412;54.472;18.464;2022-08-06T14:31:41;5.50;;;0.90;;
59587;SDS011;45412;54.472;18.464;2022-08-06T14:34:44;5.80;;;0.90;;
59587;SDS011;45412;54.472;18.464;2022-08-06T14:37:56;4.90;;;0.80;;
59587;SDS011;45412;54.472;18.464;2022-08-06T14:40:53;4.80;;;0.90;;
59587;SDS011;45412;54.472;18.464;2022-08-06T14:45:03;5.00;;;0.90;;
59587;SDS011;45412;54.472;18.464;2022-08-06T14:48:26;5.80;;;1.20;;
59587;SDS011;45412;54.472;18.464;2022-08-06T14:51:17;7.70;;;1.20;;
59587;SDS011;45412;54.472;18.464;2022-08-06T14:54:10;7.70;;;1.40;;
59587;SDS011;45412;54.472;18.464;2022-08-06T14:57:03;6.40;;;1.30;;
59587;SDS011;45412;54.472;18.464;2022-08-06T15:00:13;5.70;;;1.20;;
59587;SDS011;45412;54.472;18.464;2022-08-06T15:03:14;4.80;;;0.90;;
59587;SDS011;45412;54.472;18.464;2022-08-06T15:06:17;5.10;;;0.90;;
59587;SDS011;45412;54.472;18.464;2022-08-06T15:09:23;3.30;;;0.70;;
59587;SDS011;45412;54.472;18.464;2022-08-06T15:12:31;3.80;;;0.80;;
59587;SDS011;45412;54.472;18.464;2022-08-06T15:15:35;4.40;;;0.80;;
59587;SDS011;45412;54.472;18.464;2022-08-06T15:18:33;5.40;;;0.80;;
59587;SDS011;45412;54.472;18.464;2022-08-06T15:21:41;4.80;;;0.70;;
59587;SDS011;45412;54.472;18.464;2022-08-06T15:24:44;5.80;;;0.90;;
59587;SDS011;45412;54.472;18.464;2022-08-06T15:27:32;6.60;;;0.90;;
59587;SDS011;45412;54.472;18.464;2022-08-06T15:30:22;5.00;;;1.00;;
59587;SDS011;45412;54.472;18.464;2022-08-06T15:33:12;6.80;;;1.20;;
59587;SDS011;45412;54.472;18.464;2022-08-06T15:36:02;5.90;;;0.90;;
59587;SDS011;45412;54.472;18.464;2022-08-06T15:38:50;5.80;;;1.00;;
59587;SDS011;45412;54.472;18.464;2022-08-06T15:41:43;5.00;;;1.00;;
59587;SDS011;45412;54.472;18.464;2022-08-06T15:44:32;4.40;;;0.90;;
59587;SDS011;45412;54.472;18.464;2022-08-06T15:47:28;5.60;;;1.00;;
59587;SDS011;45412;54.472;18.464;2022-08-06T15:50:29;4.90;;;0.90;;
59587;SDS011;45412;54.472;18.464;2022-08-06T15:53:22;5.00;;;1.10;;
59587;SDS011;45412;54.472;18.464;2022-08-06T15:56:10;4.50;;;0.90;;
59587;SDS011;45412;54.472;18.464;2022-08-06T15:58:58;5.60;;;1.00;;
59587;SDS011;45412;54.472;18.464;2022-08-06T16:01:47;7.30;;;1.00;;
59587;SDS011;45412;54.472;18.464;2022-08-06T16:04:51;5.90;;;1.10;;
59587;SDS011;45412;54.472;18.464;2022-08-06T16:07:40;6.20;;;1.10;;
59587;SDS011;45412;54.472;18.464;2022-08-06T16:10:48;5.30;;;0.90;;
59587;SDS011;45412;54.472;18.464;2022-08-06T16:13:37;7.50;;;1.30;;
59587;SDS011;45412;54.472;18.464;2022-08-06T16:16:26;4.70;;;0.90;;
59587;SDS011;45412;54.472;18.464;2022-08-06T16:19:18;5.40;;;1.00;;
59587;SDS011;45412;54.472;18.464;2022-08-06T16:22:08;5.20;;;0.90;;
59587;SDS011;45412;54.472;18.464;2022-08-06T16:24:57;4.90;;;1.10;;
59587;SDS011;45412;54.472;18.464;2022-08-06T16:27:45;5.70;;;1.10;;
59587;SDS011;45412;54.472;18.464;2022-08-06T16:30:36;5.60;;;1.00;;
59587;SDS011;45412;54.472;18.464;2022-08-06T16:33:44;5.70;;;1.50;;
59587;SDS011;45412;54.472;18.464;2022-08-06T16:36:42;5.90;;;0.90;;
59587;SDS011;45412;54.472;18.464;2022-08-06T16:39:30;4.40;;;0.90;;
59587;SDS011;45412;54.472;18.464;2022-08-06T16:42:22;4.80;;;0.90;;
59587;SDS011;45412;54.472;18.464;2022-08-06T16:45:10;5.40;;;1.10;;
59587;SDS011;45412;54.472;18.464;2022-08-06T16:48:02;5.30;;;1.00;;
59587;SDS011;45412;54.472;18.464;2022-08-06T16:51:10;5.80;;;1.20;;
59587;SDS011;45412;54.472;18.464;2022-08-06T16:54:21;4.50;;;1.00;;
59587;SDS011;45412;54.472;18.464;2022-08-06T16:57:10;5.00;;;1.10;;
59587;SDS011;45412;54.472;18.464;2022-08-06T16:59:58;6.00;;;1.10;;
59587;SDS011;45412;54.472;18.464;2022-08-06T17:02:46;11.80;;;1.20;;
59587;SDS011;45412;54.472;18.464;2022-08-06T17:05:37;6.50;;;1.00;;
59587;SDS011;45412;54.472;18.464;2022-08-06T17:08:39;5.30;;;1.10;;
59587;SDS011;45412;54.472;18.464;2022-08-06T17:11:30;6.40;;;1.10;;
59587;SDS011;45412;54.472;18.464;2022-08-06T17:14:35;5.20;;;0.90;;
59587;SDS011;45412;54.472;18.464;2022-08-06T17:17:39;4.40;;;1.00;;
59587;SDS011;45412;54.472;18.464;2022-08-06T17:20:34;5.60;;;1.20;;
59587;SDS011;45412;54.472;18.464;2022-08-06T17:23:31;5.60;;;1.20;;
59587;SDS011;45412;54.472;18.464;2022-08-06T17:26:24;6.00;;;1.20;;
59587;SDS011;45412;54.472;18.464;2022-08-06T17:29:21;5.30;;;1.10;;
59587;SDS011;45412;54.472;18.464;2022-08-06T17:32:29;5.20;;;1.30;;
59587;SDS011;45412;54.472;18.464;2022-08-06T17:35:25;5.30;;;1.00;;
59587;SDS011;45412;54.472;18.464;2022-08-06T17:38:33;5.00;;;1.20;;
59587;SDS011;45412;54.472;18.464;2022-08-06T17:41:21;5.20;;;1.10;;
59587;SDS011;45412;54.472;18.464;2022-08-06T17:44:25;6.90;;;1.20;;
59587;SDS011;45412;54.472;18.464;2022-08-06T17:47:13;5.30;;;1.10;;
59587;SDS011;45412;54.472;18.464;2022-08-06T17:50:02;5.90;;;1.20;;
59587;SDS011;45412;54.472;18.464;2022-08-06T17:52:52;7.90;;;1.40;;
59587;SDS011;45412;54.472;18.464;2022-08-06T17:55:41;5.70;;;1.30;;
59587;SDS011;45412;54.472;18.464;2022-08-06T17:58:47;5.60;;;1.20;;
59587;SDS011;45412;54.472;18.464;2022-08-06T18:01:41;6.90;;;1.40;;
59587;SDS011;45412;54.472;18.464;2022-08-06T18:04:32;5.00;;;1.10;;
59587;SDS011;45412;54.472;18.464;2022-08-06T18:07:28;6.10;;;1.30;;
59587;SDS011;45412;54.472;18.464;2022-08-06T18:10:36;7.90;;;1.40;;
59587;SDS011;45412;54.472;18.464;2022-08-06T18:13:26;6.80;;;1.00;;
59587;SDS011;45412;54.472;18.464;2022-08-06T18:16:34;6.20;;;1.10;;
59587;SDS011;45412;54.472;18.464;2022-08-06T18:19:22;6.00;;;1.00;;
59587;SDS011;45412;54.472;18.464;2022-08-06T18:22:23;5.70;;;1.20;;
59587;SDS011;45412;54.472;18.464;2022-08-06T18:25:12;5.70;;;1.20;;